Rebun Maru No.3 — 7JNN — position and weather

sailwx.info

Track history (hours):
 
Tides and Currents Weather Stations Pressure Air Temp Water Temp Dewpoint Dewpoint Depression Visibility Wind Speed Wind Dir Waves Ship Positions

Rebun Maru No.3

Last reported at 2018-Jul-15 10:19 UTC. Time now 2018-Jul-21 09:14 UTC.
Position N 34°25' E 133°59'.

Length 81 m; draft 5 m.

Type: Tanker. MMSI: 431004095.

Date/timePositionNaut miles runAvg speedWind from/ knotsBaromVisibWave heightAir tempDewpointWater temp
2018-Jul-15 10:19N 34°25' E 133°59'1213.6
2018-Jul-15 09:27N 34°24' E 134°13'613.6
2018-Jul-15 09:00N 34°25' E 134°21'713.3
2018-Jul-15 08:30N 34°27' E 134°28'713.2
2018-Jul-15 08:00N 34°30' E 134°36'612.8
2018-Jul-15 07:30N 34°32' E 134°43'612.4
2018-Jul-15 06:59N 34°34' E 134°50'510.2
2018-Jul-15 06:28N 34°36' E 134°56'4 8.7
2018-Jul-15 05:58N 34°37' E 135°01'4 8.7
2018-Jul-15 05:30N 34°36' E 135°06'3 5.6
2018-Jul-15 04:59N 34°39' E 135°08'0 0.0
2018-Jul-15 04:29N 34°39' E 135°08'0 0.0
2018-Jul-15 03:59N 34°39' E 135°08'0 0.0
2018-Jul-15 03:29N 34°39' E 135°08'0 0.0
2018-Jul-15 02:59N 34°39' E 135°08'0 0.0
2018-Jul-15 02:26N 34°39' E 135°08'1 1.8
2018-Jul-15 02:00N 34°38' E 135°08'0 0.1
2018-Jul-15 01:19N 34°38' E 135°08'0 0.0
2018-Jul-15 00:49N 34°38' E 135°08'0 0.1
2018-Jul-15 00:25N 34°38' E 135°08'0 0.0
2018-Jul-14 23:55N 34°38' E 135°08'0 0.0
2018-Jul-14 23:19N 34°38' E 135°08'0 0.0
2018-Jul-14 22:49N 34°38' E 135°08'0 0.0
2018-Jul-14 22:25N 34°38' E 135°08'0 0.0
2018-Jul-14 21:49N 34°38' E 135°08'0 0.0
2018-Jul-14 21:25N 34°38' E 135°08'0 0.0
2018-Jul-14 20:55N 34°38' E 135°08'0 0.1
2018-Jul-14 20:25N 34°38' E 135°08'0 0.0
2018-Jul-14 19:55N 34°38' E 135°08'0 0.1
2018-Jul-14 19:25N 34°38' E 135°08'0 0.0
2018-Jul-14 18:55N 34°38' E 135°08'0 0.0
2018-Jul-14 18:25N 34°38' E 135°08'0 0.0
2018-Jul-14 17:49N 34°38' E 135°08'0 0.0
2018-Jul-14 17:28N 34°38' E 135°08'0 0.0
2018-Jul-14 16:55N 34°38' E 135°08'0 0.0
2018-Jul-14 16:25N 34°38' E 135°08'0 0.0
2018-Jul-14 15:55N 34°38' E 135°08'0 0.1
2018-Jul-14 15:28N 34°38' E 135°08'0 0.1
2018-Jul-14 14:55N 34°38' E 135°08'0 0.1
2018-Jul-14 14:25N 34°38' E 135°08'0 0.1
2018-Jul-14 13:28N 34°38' E 135°08'0 0.0
2018-Jul-14 12:58N 34°38' E 135°08'0 0.0
2018-Jul-14 12:25N 34°38' E 135°08'0 0.0
2018-Jul-14 11:55N 34°38' E 135°08'0 0.0
2018-Jul-14 11:25N 34°38' E 135°08'0 1.1
2018-Jul-14 11:01N 34°37' E 135°08'612.6
2018-Jul-14 10:30N 34°31' E 135°06'714.5
2018-Jul-14 10:01N 34°25' E 135°03'714.0
2018-Jul-14 09:30N 34°18' E 134°59'713.5
2018-Jul-14 09:00N 34°12' E 135°03'611.9
2018-Jul-14 08:31N 34°07' E 135°07'0 0.2
2018-Jul-14 07:59N 34°07' E 135°07'0 0.0
2018-Jul-14 07:30N 34°07' E 135°07'0 0.0
2018-Jul-14 06:59N 34°07' E 135°07'0 0.0
2018-Jul-14 06:29N 34°07' E 135°07'0 0.0
2018-Jul-14 05:59N 34°07' E 135°07'0 0.0
2018-Jul-14 05:29N 34°07' E 135°07'0 0.5
2018-Jul-14 05:00N 34°07' E 135°07'0 0.2
2018-Jul-14 04:30N 34°07' E 135°08'0 0.0
2018-Jul-14 04:00N 34°07' E 135°08'0 0.0
2018-Jul-14 03:30N 34°07' E 135°08'0 0.1
2018-Jul-14 03:00N 34°07' E 135°07'0 0.0
2018-Jul-14 02:30N 34°07' E 135°07'0 0.1
2018-Jul-14 02:00N 34°07' E 135°07'0 0.0
2018-Jul-14 01:30N 34°07' E 135°07'0 0.1
2018-Jul-14 01:00N 34°07' E 135°08'0 0.0
2018-Jul-14 00:30N 34°07' E 135°08'0 0.0
2018-Jul-14 00:00N 34°07' E 135°08'0 0.0
2018-Jul-13 23:30N 34°07' E 135°08'0 0.1
2018-Jul-13 22:57N 34°07' E 135°07'0 0.0
2018-Jul-13 22:30N 34°07' E 135°07'0 0.1
2018-Jul-13 22:00N 34°07' E 135°08'0 0.0
2018-Jul-13 21:30N 34°07' E 135°08'0 0.0
2018-Jul-13 21:00N 34°07' E 135°08'0 0.0
2018-Jul-13 20:30N 34°07' E 135°08'0 0.1
2018-Jul-13 20:00N 34°07' E 135°07'0 0.0
2018-Jul-13 19:30N 34°07' E 135°07'0 0.0
2018-Jul-13 19:00N 34°07' E 135°07'0 0.0
2018-Jul-13 18:30N 34°07' E 135°07'0 0.0
2018-Jul-13 18:00N 34°07' E 135°07'0 0.0
2018-Jul-13 17:30N 34°07' E 135°07'0 0.0
2018-Jul-13 17:00N 34°07' E 135°07'0 0.0
2018-Jul-13 16:27N 34°07' E 135°07'0 0.0
2018-Jul-13 16:00N 34°07' E 135°07'0 0.0
2018-Jul-13 15:30N 34°07' E 135°07'0 0.0
2018-Jul-13 15:00N 34°07' E 135°07'0 0.0
2018-Jul-13 14:00N 34°07' E 135°07'0 0.0
2018-Jul-13 13:30N 34°07' E 135°07'0 0.0
2018-Jul-13 13:00N 34°07' E 135°07'0 0.1
2018-Jul-13 12:31N 34°07' E 135°07'4 8.3
2018-Jul-13 12:00N 34°11' E 135°04'612.0
2018-Jul-13 11:31N 34°15' E 134°60'5 9.6
2018-Jul-13 11:01N 34°20' E 134°59'612.5
2018-Jul-13 10:31N 34°26' E 135°02'612.3
2018-Jul-13 10:00N 34°31' E 135°05'612.7
2018-Jul-13 09:30N 34°37' E 135°08'1 2.1
2018-Jul-13 08:56N 34°39' E 135°08'0 0.0
2018-Jul-13 08:26N 34°39' E 135°08'0 0.0
2018-Jul-13 07:56N 34°39' E 135°08'0 0.0
2018-Jul-13 07:26N 34°39' E 135°08'0 0.0
2018-Jul-13 06:56N 34°39' E 135°08'0 0.0
2018-Jul-13 06:26N 34°39' E 135°08'0 0.0
2018-Jul-13 05:56N 34°39' E 135°08'0 0.0
2018-Jul-13 05:30N 34°39' E 135°08'0 0.2
2018-Jul-13 05:00N 34°38' E 135°08'1 2.6
2018-Jul-13 04:30N 34°37' E 135°09'0 0.0
2018-Jul-13 03:59N 34°37' E 135°09'0 0.1
2018-Jul-13 03:26N 34°37' E 135°09'0 0.1
2018-Jul-13 02:59N 34°37' E 135°09'0 0.1
2018-Jul-13 02:29N 34°37' E 135°09'0 0.0
2018-Jul-13 01:59N 34°37' E 135°09'0 0.1
2018-Jul-13 01:29N 34°37' E 135°08'0 0.0
2018-Jul-13 00:59N 34°37' E 135°08'0 0.0
2018-Jul-13 00:23N 34°37' E 135°08'0 0.0
2018-Jul-12 23:59N 34°37' E 135°08'0 0.0
2018-Jul-12 23:23N 34°37' E 135°08'0 0.0
2018-Jul-12 22:59N 34°37' E 135°08'0 0.0
2018-Jul-12 22:29N 34°37' E 135°08'0 0.0
2018-Jul-12 21:47N 34°37' E 135°08'0 0.0
2018-Jul-12 21:23N 34°37' E 135°08'0 0.0
2018-Jul-12 20:53N 34°37' E 135°08'0 0.2
2018-Jul-12 20:29N 34°37' E 135°08'0 0.0
2018-Jul-12 19:47N 34°37' E 135°08'0 0.1
2018-Jul-12 19:29N 34°37' E 135°08'0 0.1
2018-Jul-12 18:59N 34°37' E 135°08'0 0.0
2018-Jul-12 18:29N 34°37' E 135°08'0 0.1
2018-Jul-12 17:41N 34°37' E 135°09'0 0.0
2018-Jul-12 17:29N 34°37' E 135°09'0 0.1
2018-Jul-12 16:59N 34°37' E 135°09'0 0.0
2018-Jul-12 16:29N 34°37' E 135°09'0 0.0
2018-Jul-12 15:59N 34°37' E 135°09'0 0.0
2018-Jul-12 15:29N 34°37' E 135°09'0 0.0
2018-Jul-12 14:59N 34°37' E 135°09'0 0.0
2018-Jul-12 14:29N 34°37' E 135°09'0 0.0
2018-Jul-12 13:59N 34°37' E 135°09'0 0.1
2018-Jul-12 13:29N 34°37' E 135°09'0 0.0
2018-Jul-12 12:59N 34°37' E 135°09'0 0.2
2018-Jul-12 12:29N 34°37' E 135°08'2 3.2
2018-Jul-12 12:00N 34°36' E 135°08'714.4
2018-Jul-12 11:30N 34°29' E 135°05'714.0
2018-Jul-12 11:01N 34°22' E 135°02'714.0
2018-Jul-12 10:30N 34°16' E 135°00'714.8
2018-Jul-12 10:01N 34°10' E 135°05'3 0.8
2018-Jul-12 06:12N 34°07' E 135°08'0 0.0
2018-Jul-12 05:51N 34°07' E 135°08'0 0.0
2018-Jul-12 05:21N 34°07' E 135°08'0 0.0
2018-Jul-12 04:42N 34°07' E 135°08'0 0.0
2018-Jul-12 04:30N 34°07' E 135°08'1 2.5
2018-Jul-12 04:00N 34°08' E 135°06'613.1
2018-Jul-12 03:30N 34°13' E 135°01'714.8
2018-Jul-12 03:00N 34°20' E 134°59'815.0
2018-Jul-12 02:30N 34°27' E 135°03'713.9
2018-Jul-12 02:00N 34°33' E 135°07'611.4
2018-Jul-12 01:31N 34°38' E 135°08'0 0.1
2018-Jul-12 00:59N 34°39' E 135°08'0 0.0
2018-Jul-12 00:29N 34°39' E 135°08'0 0.0
2018-Jul-11 23:59N 34°39' E 135°08'0 0.0
2018-Jul-11 23:29N 34°39' E 135°08'0 0.0
2018-Jul-11 22:59N 34°39' E 135°08'0 0.0
2018-Jul-11 22:30N 34°39' E 135°08'1 1.1
2018-Jul-11 22:00N 34°38' E 135°08'1 1.0
2018-Jul-11 21:26N 34°37' E 135°08'0 0.0
2018-Jul-11 20:56N 34°37' E 135°08'0 0.0
2018-Jul-11 20:26N 34°37' E 135°08'0 0.0
2018-Jul-11 19:56N 34°37' E 135°08'0 0.0
2018-Jul-11 19:26N 34°37' E 135°08'0 0.0
2018-Jul-11 18:56N 34°37' E 135°08'0 0.0
2018-Jul-11 18:26N 34°37' E 135°08'0 0.1
2018-Jul-11 17:56N 34°37' E 135°09'0 0.0
2018-Jul-11 17:20N 34°37' E 135°09'0 0.1
2018-Jul-11 16:56N 34°37' E 135°09'0 0.0
2018-Jul-11 16:26N 34°37' E 135°09'0 0.0
2018-Jul-11 15:59N 34°37' E 135°09'0 0.0
2018-Jul-11 15:26N 34°37' E 135°09'0 0.0
2018-Jul-11 14:50N 34°37' E 135°09'0 0.1
2018-Jul-11 14:26N 34°37' E 135°09'0 0.0
2018-Jul-11 13:56N 34°37' E 135°09'0 0.1
2018-Jul-11 13:26N 34°37' E 135°09'0 0.1
2018-Jul-11 12:50N 34°37' E 135°08'0 0.0
2018-Jul-11 12:26N 34°37' E 135°08'0 0.0
2018-Jul-11 11:56N 34°37' E 135°08'0 0.0
2018-Jul-11 11:26N 34°37' E 135°08'0 0.1
2018-Jul-11 10:50N 34°37' E 135°09'0 0.1
2018-Jul-11 10:20N 34°37' E 135°08'0 0.0
2018-Jul-11 09:56N 34°37' E 135°08'0 0.0
2018-Jul-11 09:26N 34°37' E 135°08'0 0.0
2018-Jul-11 08:56N 34°37' E 135°08'0 0.0
2018-Jul-11 08:26N 34°37' E 135°08'0 0.0
2018-Jul-11 07:56N 34°37' E 135°08'0 0.0
2018-Jul-11 07:14N 34°37' E 135°08'0 0.1
2018-Jul-11 06:56N 34°37' E 135°08'0 0.0
2018-Jul-11 06:20N 34°37' E 135°08'0 0.1
2018-Jul-11 05:56N 34°37' E 135°09'0 0.0
2018-Jul-11 05:26N 34°37' E 135°09'0 0.0
2018-Jul-11 04:50N 34°37' E 135°09'0 0.0
2018-Jul-11 04:26N 34°37' E 135°09'0 0.0
2018-Jul-11 03:44N 34°37' E 135°09'0 0.1
2018-Jul-11 03:26N 34°37' E 135°09'0 0.1
2018-Jul-11 02:56N 34°37' E 135°09'0 0.0
2018-Jul-11 02:26N 34°37' E 135°09'0 0.0
2018-Jul-11 01:50N 34°37' E 135°09'0 0.0
2018-Jul-11 01:26N 34°37' E 135°09'0 0.0
2018-Jul-11 00:56N 34°37' E 135°09'0 0.1
2018-Jul-11 00:26N 34°37' E 135°09'0 0.0
2018-Jul-10 23:56N 34°37' E 135°09'0 0.0
2018-Jul-10 23:26N 34°37' E 135°09'0 0.0
2018-Jul-10 22:56N 34°37' E 135°09'0 0.0
2018-Jul-10 22:26N 34°37' E 135°09'0 0.1
2018-Jul-10 21:56N 34°37' E 135°08'0 0.0
2018-Jul-10 21:26N 34°37' E 135°08'0 0.0
2018-Jul-10 20:56N 34°37' E 135°08'0 0.0
2018-Jul-10 20:26N 34°37' E 135°08'0 0.1
2018-Jul-10 19:56N 34°37' E 135°09'0 0.0
2018-Jul-10 19:26N 34°37' E 135°09'0 0.0
2018-Jul-10 18:50N 34°37' E 135°09'0 0.0
2018-Jul-10 18:26N 34°37' E 135°09'0 0.0
2018-Jul-10 17:56N 34°37' E 135°09'0 0.0
2018-Jul-10 17:26N 34°37' E 135°09'0 0.1
2018-Jul-10 16:50N 34°37' E 135°09'0 0.0
2018-Jul-10 16:26N 34°37' E 135°09'0 0.1
2018-Jul-10 15:56N 34°37' E 135°09'0 0.1
2018-Jul-10 15:26N 34°37' E 135°09'0 0.1
2018-Jul-10 14:56N 34°37' E 135°09'0 0.0
2018-Jul-10 14:29N 34°37' E 135°09'0 0.1
2018-Jul-10 13:59N 34°37' E 135°09'0 0.1
2018-Jul-10 13:26N 34°37' E 135°09'0 0.2
2018-Jul-10 12:59N 34°37' E 135°09'0 0.0
2018-Jul-10 12:26N 34°37' E 135°09'0 0.1
2018-Jul-10 11:56N 34°37' E 135°09'0 0.0
2018-Jul-10 11:26N 34°37' E 135°09'0 0.1
2018-Jul-10 10:56N 34°37' E 135°09'1 2.7
2018-Jul-10 10:31N 34°37' E 135°10'713.1
2018-Jul-10 10:00N 34°35' E 135°18'612.6
2018-Jul-10 09:30N 34°33' E 135°25'1 1.0
2018-Jul-10 08:55N 34°33' E 135°26'0 0.0
2018-Jul-10 08:28N 34°33' E 135°26'0 0.0
2018-Jul-10 07:55N 34°33' E 135°26'0 0.0
2018-Jul-10 07:16N 34°33' E 135°26'0 0.0
2018-Jul-10 06:58N 34°33' E 135°26'0 0.0
2018-Jul-10 06:28N 34°33' E 135°26'1 2.0
2018-Jul-10 06:00N 34°33' E 135°25'612.3
2018-Jul-10 05:30N 34°32' E 135°17'713.7
2018-Jul-10 05:00N 34°27' E 135°11'713.6
2018-Jul-10 04:30N 34°23' E 135°05'713.7
2018-Jul-10 04:01N 34°18' E 134°60'611.2
2018-Jul-10 03:30N 34°13' E 135°03'613.0
2018-Jul-10 03:00N 34°07' E 135°07'0 0.6
2018-Jul-10 02:15N 34°07' E 135°08'0 0.0
2018-Jul-10 01:54N 34°07' E 135°08'0 0.0
2018-Jul-10 01:09N 34°07' E 135°08'0 0.0
2018-Jul-10 00:57N 34°07' E 135°08'0 0.0
2018-Jul-10 00:21N 34°07' E 135°08'0 0.0
2018-Jul-10 00:00N 34°07' E 135°08'1 0.8
2018-Jul-09 23:16N 34°07' E 135°07'0 0.2
2018-Jul-09 22:58N 34°08' E 135°07'0 0.1
2018-Jul-09 22:28N 34°08' E 135°07'0 0.0
2018-Jul-09 21:58N 34°08' E 135°07'0 0.0
2018-Jul-09 21:28N 34°08' E 135°07'0 0.0
2018-Jul-09 20:58N 34°08' E 135°07'0 0.0
2018-Jul-09 20:28N 34°08' E 135°07'0 0.0
2018-Jul-09 19:58N 34°08' E 135°07'0 0.0
2018-Jul-09 19:28N 34°08' E 135°07'0 0.0
2018-Jul-09 18:58N 34°08' E 135°07'0 0.0
2018-Jul-09 18:16N 34°08' E 135°07'0 0.6
2018-Jul-09 18:01N 34°08' E 135°07'5 9.0
2018-Jul-09 17:30N 34°05' E 135°03'612.8
2018-Jul-09 17:00N 33°58' E 135°02'713.0
2018-Jul-09 16:30N 33°52' E 135°01'212 6.5
2018-Jul-08 07:47N 34°48' E 139°08'413.5
2018-Jul-08 07:29N 34°51' E 139°11'713.2
2018-Jul-08 06:55N 34°57' E 139°17'512.5
2018-Jul-08 06:31N 34°59' E 139°23'612.2
2018-Jul-08 05:59N 35°02' E 139°30'612.3
2018-Jul-08 05:31N 35°05' E 139°36'713.0
2018-Jul-08 05:00N 35°08' E 139°43'612.7
2018-Jul-08 04:30N 35°14' E 139°46'612.2
2018-Jul-08 04:01N 35°19' E 139°43'611.9
2018-Jul-08 03:31N 35°24' E 139°40'0 0.5
2018-Jul-08 02:59N 35°24' E 139°40'0 0.0
2018-Jul-08 02:29N 35°24' E 139°40'0 0.0
2018-Jul-08 01:59N 35°24' E 139°40'0 0.0
2018-Jul-08 01:29N 35°24' E 139°40'0 0.0
2018-Jul-08 00:59N 35°24' E 139°40'0 0.0
2018-Jul-08 00:29N 35°24' E 139°40'0 0.0
2018-Jul-07 23:59N 35°24' E 139°40'0 0.0
2018-Jul-07 23:29N 35°24' E 139°40'0 0.9
2018-Jul-07 23:00N 35°24' E 139°40'3 6.7
2018-Jul-07 22:30N 35°23' E 139°43'1 1.5
2018-Jul-07 22:00N 35°22' E 139°44'0 0.0
2018-Jul-07 21:30N 35°22' E 139°44'0 0.1
2018-Jul-07 21:00N 35°22' E 139°44'0 0.0
2018-Jul-07 20:30N 35°22' E 139°44'0 0.1
2018-Jul-07 20:00N 35°22' E 139°44'0 0.0
2018-Jul-07 19:30N 35°22' E 139°44'0 0.0
2018-Jul-07 19:00N 35°22' E 139°44'0 0.0
2018-Jul-07 18:30N 35°22' E 139°44'0 0.0
2018-Jul-07 18:00N 35°22' E 139°44'0 0.0
2018-Jul-07 17:30N 35°22' E 139°44'4 8.3
2018-Jul-07 17:00N 35°18' E 139°45'611.5
2018-Jul-07 16:30N 35°13' E 139°47'713.3
2018-Jul-07 16:00N 35°06' E 139°45'713.5
2018-Jul-07 15:30N 34°59' E 139°43'510.3
2018-Jul-07 15:00N 34°54' E 139°45'  
Track history (hours):
 
Tides and Currents Weather Stations Pressure Air Temp Water Temp Dewpoint Dewpoint Depression Visibility Wind Speed Wind Dir Waves Ship Positions

Rebun Maru No.3

Last reported at 2018-Jul-15 10:19 UTC. Time now 2018-Jul-21 09:14 UTC.
Position N 34°25' E 133°59'.

Length 81 m; draft 5 m.

Type: Tanker. MMSI: 431004095.

Date/timePositionNaut miles runAvg speedWind from/ knotsBaromVisibWave heightAir tempDewpointWater temp
2018-Jul-15 10:19N 34°25' E 133°59'1213.6
2018-Jul-15 09:27N 34°24' E 134°13'613.6
2018-Jul-15 09:00N 34°25' E 134°21'713.3
2018-Jul-15 08:30N 34°27' E 134°28'713.2
2018-Jul-15 08:00N 34°30' E 134°36'612.8
2018-Jul-15 07:30N 34°32' E 134°43'612.4
2018-Jul-15 06:59N 34°34' E 134°50'510.2
2018-Jul-15 06:28N 34°36' E 134°56'4 8.7
2018-Jul-15 05:58N 34°37' E 135°01'4 8.7
2018-Jul-15 05:30N 34°36' E 135°06'3 5.6
2018-Jul-15 04:59N 34°39' E 135°08'0 0.0
2018-Jul-15 04:29N 34°39' E 135°08'0 0.0
2018-Jul-15 03:59N 34°39' E 135°08'0 0.0
2018-Jul-15 03:29N 34°39' E 135°08'0 0.0
2018-Jul-15 02:59N 34°39' E 135°08'0 0.0
2018-Jul-15 02:26N 34°39' E 135°08'1 1.8
2018-Jul-15 02:00N 34°38' E 135°08'0 0.1
2018-Jul-15 01:19N 34°38' E 135°08'0 0.0
2018-Jul-15 00:49N 34°38' E 135°08'0 0.1
2018-Jul-15 00:25N 34°38' E 135°08'0 0.0
2018-Jul-14 23:55N 34°38' E 135°08'0 0.0
2018-Jul-14 23:19N 34°38' E 135°08'0 0.0
2018-Jul-14 22:49N 34°38' E 135°08'0 0.0
2018-Jul-14 22:25N 34°38' E 135°08'0 0.0
2018-Jul-14 21:49N 34°38' E 135°08'0 0.0
2018-Jul-14 21:25N 34°38' E 135°08'0 0.0
2018-Jul-14 20:55N 34°38' E 135°08'0 0.1
2018-Jul-14 20:25N 34°38' E 135°08'0 0.0
2018-Jul-14 19:55N 34°38' E 135°08'0 0.1
2018-Jul-14 19:25N 34°38' E 135°08'0 0.0
2018-Jul-14 18:55N 34°38' E 135°08'0 0.0
2018-Jul-14 18:25N 34°38' E 135°08'0 0.0
2018-Jul-14 17:49N 34°38' E 135°08'0 0.0
2018-Jul-14 17:28N 34°38' E 135°08'0 0.0
2018-Jul-14 16:55N 34°38' E 135°08'0 0.0
2018-Jul-14 16:25N 34°38' E 135°08'0 0.0
2018-Jul-14 15:55N 34°38' E 135°08'0 0.1
2018-Jul-14 15:28N 34°38' E 135°08'0 0.1
2018-Jul-14 14:55N 34°38' E 135°08'0 0.1
2018-Jul-14 14:25N 34°38' E 135°08'0 0.1
2018-Jul-14 13:28N 34°38' E 135°08'0 0.0
2018-Jul-14 12:58N 34°38' E 135°08'0 0.0
2018-Jul-14 12:25N 34°38' E 135°08'0 0.0
2018-Jul-14 11:55N 34°38' E 135°08'0 0.0
2018-Jul-14 11:25N 34°38' E 135°08'0 1.1
2018-Jul-14 11:01N 34°37' E 135°08'612.6
2018-Jul-14 10:30N 34°31' E 135°06'714.5
2018-Jul-14 10:01N 34°25' E 135°03'714.0
2018-Jul-14 09:30N 34°18' E 134°59'713.5
2018-Jul-14 09:00N 34°12' E 135°03'611.9
2018-Jul-14 08:31N 34°07' E 135°07'0 0.2
2018-Jul-14 07:59N 34°07' E 135°07'0 0.0
2018-Jul-14 07:30N 34°07' E 135°07'0 0.0
2018-Jul-14 06:59N 34°07' E 135°07'0 0.0
2018-Jul-14 06:29N 34°07' E 135°07'0 0.0
2018-Jul-14 05:59N 34°07' E 135°07'0 0.0
2018-Jul-14 05:29N 34°07' E 135°07'0 0.5
2018-Jul-14 05:00N 34°07' E 135°07'0 0.2
2018-Jul-14 04:30N 34°07' E 135°08'0 0.0
2018-Jul-14 04:00N 34°07' E 135°08'0 0.0
2018-Jul-14 03:30N 34°07' E 135°08'0 0.1
2018-Jul-14 03:00N 34°07' E 135°07'0 0.0
2018-Jul-14 02:30N 34°07' E 135°07'0 0.1
2018-Jul-14 02:00N 34°07' E 135°07'0 0.0
2018-Jul-14 01:30N 34°07' E 135°07'0 0.1
2018-Jul-14 01:00N 34°07' E 135°08'0 0.0
2018-Jul-14 00:30N 34°07' E 135°08'0 0.0
2018-Jul-14 00:00N 34°07' E 135°08'0 0.0
2018-Jul-13 23:30N 34°07' E 135°08'0 0.1
2018-Jul-13 22:57N 34°07' E 135°07'0 0.0
2018-Jul-13 22:30N 34°07' E 135°07'0 0.1
2018-Jul-13 22:00N 34°07' E 135°08'0 0.0
2018-Jul-13 21:30N 34°07' E 135°08'0 0.0
2018-Jul-13 21:00N 34°07' E 135°08'0 0.0
2018-Jul-13 20:30N 34°07' E 135°08'0 0.1
2018-Jul-13 20:00N 34°07' E 135°07'0 0.0
2018-Jul-13 19:30N 34°07' E 135°07'0 0.0
2018-Jul-13 19:00N 34°07' E 135°07'0 0.0
2018-Jul-13 18:30N 34°07' E 135°07'0 0.0
2018-Jul-13 18:00N 34°07' E 135°07'0 0.0
2018-Jul-13 17:30N 34°07' E 135°07'0 0.0
2018-Jul-13 17:00N 34°07' E 135°07'0 0.0
2018-Jul-13 16:27N 34°07' E 135°07'0 0.0
2018-Jul-13 16:00N 34°07' E 135°07'0 0.0
2018-Jul-13 15:30N 34°07' E 135°07'0 0.0
2018-Jul-13 15:00N 34°07' E 135°07'0 0.0
2018-Jul-13 14:00N 34°07' E 135°07'0 0.0
2018-Jul-13 13:30N 34°07' E 135°07'0 0.0
2018-Jul-13 13:00N 34°07' E 135°07'0 0.1
2018-Jul-13 12:31N 34°07' E 135°07'4 8.3
2018-Jul-13 12:00N 34°11' E 135°04'612.0
2018-Jul-13 11:31N 34°15' E 134°60'5 9.6
2018-Jul-13 11:01N 34°20' E 134°59'612.5
2018-Jul-13 10:31N 34°26' E 135°02'612.3
2018-Jul-13 10:00N 34°31' E 135°05'612.7
2018-Jul-13 09:30N 34°37' E 135°08'1 2.1
2018-Jul-13 08:56N 34°39' E 135°08'0 0.0
2018-Jul-13 08:26N 34°39' E 135°08'0 0.0
2018-Jul-13 07:56N 34°39' E 135°08'0 0.0
2018-Jul-13 07:26N 34°39' E 135°08'0 0.0
2018-Jul-13 06:56N 34°39' E 135°08'0 0.0
2018-Jul-13 06:26N 34°39' E 135°08'0 0.0
2018-Jul-13 05:56N 34°39' E 135°08'0 0.0
2018-Jul-13 05:30N 34°39' E 135°08'0 0.2
2018-Jul-13 05:00N 34°38' E 135°08'1 2.6
2018-Jul-13 04:30N 34°37' E 135°09'0 0.0
2018-Jul-13 03:59N 34°37' E 135°09'0 0.1
2018-Jul-13 03:26N 34°37' E 135°09'0 0.1
2018-Jul-13 02:59N 34°37' E 135°09'0 0.1
2018-Jul-13 02:29N 34°37' E 135°09'0 0.0
2018-Jul-13 01:59N 34°37' E 135°09'0 0.1
2018-Jul-13 01:29N 34°37' E 135°08'0 0.0
2018-Jul-13 00:59N 34°37' E 135°08'0 0.0
2018-Jul-13 00:23N 34°37' E 135°08'0 0.0
2018-Jul-12 23:59N 34°37' E 135°08'0 0.0
2018-Jul-12 23:23N 34°37' E 135°08'0 0.0
2018-Jul-12 22:59N 34°37' E 135°08'0 0.0
2018-Jul-12 22:29N 34°37' E 135°08'0 0.0
2018-Jul-12 21:47N 34°37' E 135°08'0 0.0
2018-Jul-12 21:23N 34°37' E 135°08'0 0.0
2018-Jul-12 20:53N 34°37' E 135°08'0 0.2
2018-Jul-12 20:29N 34°37' E 135°08'0 0.0
2018-Jul-12 19:47N 34°37' E 135°08'0 0.1
2018-Jul-12 19:29N 34°37' E 135°08'0 0.1
2018-Jul-12 18:59N 34°37' E 135°08'0 0.0
2018-Jul-12 18:29N 34°37' E 135°08'0 0.1
2018-Jul-12 17:41N 34°37' E 135°09'0 0.0
2018-Jul-12 17:29N 34°37' E 135°09'0 0.1
2018-Jul-12 16:59N 34°37' E 135°09'0 0.0
2018-Jul-12 16:29N 34°37' E 135°09'0 0.0
2018-Jul-12 15:59N 34°37' E 135°09'0 0.0
2018-Jul-12 15:29N 34°37' E 135°09'0 0.0
2018-Jul-12 14:59N 34°37' E 135°09'0 0.0
2018-Jul-12 14:29N 34°37' E 135°09'0 0.0
2018-Jul-12 13:59N 34°37' E 135°09'0 0.1
2018-Jul-12 13:29N 34°37' E 135°09'0 0.0
2018-Jul-12 12:59N 34°37' E 135°09'0 0.2
2018-Jul-12 12:29N 34°37' E 135°08'2 3.2
2018-Jul-12 12:00N 34°36' E 135°08'714.4
2018-Jul-12 11:30N 34°29' E 135°05'714.0
2018-Jul-12 11:01N 34°22' E 135°02'714.0
2018-Jul-12 10:30N 34°16' E 135°00'714.8
2018-Jul-12 10:01N 34°10' E 135°05'3 0.8
2018-Jul-12 06:12N 34°07' E 135°08'0 0.0
2018-Jul-12 05:51N 34°07' E 135°08'0 0.0
2018-Jul-12 05:21N 34°07' E 135°08'0 0.0
2018-Jul-12 04:42N 34°07' E 135°08'0 0.0
2018-Jul-12 04:30N 34°07' E 135°08'1 2.5
2018-Jul-12 04:00N 34°08' E 135°06'613.1
2018-Jul-12 03:30N 34°13' E 135°01'714.8
2018-Jul-12 03:00N 34°20' E 134°59'815.0
2018-Jul-12 02:30N 34°27' E 135°03'713.9
2018-Jul-12 02:00N 34°33' E 135°07'611.4
2018-Jul-12 01:31N 34°38' E 135°08'0 0.1
2018-Jul-12 00:59N 34°39' E 135°08'0 0.0
2018-Jul-12 00:29N 34°39' E 135°08'0 0.0
2018-Jul-11 23:59N 34°39' E 135°08'0 0.0
2018-Jul-11 23:29N 34°39' E 135°08'0 0.0
2018-Jul-11 22:59N 34°39' E 135°08'0 0.0
2018-Jul-11 22:30N 34°39' E 135°08'1 1.1
2018-Jul-11 22:00N 34°38' E 135°08'1 1.0
2018-Jul-11 21:26N 34°37' E 135°08'0 0.0
2018-Jul-11 20:56N 34°37' E 135°08'0 0.0
2018-Jul-11 20:26N 34°37' E 135°08'0 0.0
2018-Jul-11 19:56N 34°37' E 135°08'0 0.0
2018-Jul-11 19:26N 34°37' E 135°08'0 0.0
2018-Jul-11 18:56N 34°37' E 135°08'0 0.0
2018-Jul-11 18:26N 34°37' E 135°08'0 0.1
2018-Jul-11 17:56N 34°37' E 135°09'0 0.0
2018-Jul-11 17:20N 34°37' E 135°09'0 0.1
2018-Jul-11 16:56N 34°37' E 135°09'0 0.0
2018-Jul-11 16:26N 34°37' E 135°09'0 0.0
2018-Jul-11 15:59N 34°37' E 135°09'0 0.0
2018-Jul-11 15:26N 34°37' E 135°09'0 0.0
2018-Jul-11 14:50N 34°37' E 135°09'0 0.1
2018-Jul-11 14:26N 34°37' E 135°09'0 0.0
2018-Jul-11 13:56N 34°37' E 135°09'0 0.1
2018-Jul-11 13:26N 34°37' E 135°09'0 0.1
2018-Jul-11 12:50N 34°37' E 135°08'0 0.0
2018-Jul-11 12:26N 34°37' E 135°08'0 0.0
2018-Jul-11 11:56N 34°37' E 135°08'0 0.0
2018-Jul-11 11:26N 34°37' E 135°08'0 0.1
2018-Jul-11 10:50N 34°37' E 135°09'0 0.1
2018-Jul-11 10:20N 34°37' E 135°08'0 0.0
2018-Jul-11 09:56N 34°37' E 135°08'0 0.0
2018-Jul-11 09:26N 34°37' E 135°08'0 0.0
2018-Jul-11 08:56N 34°37' E 135°08'0 0.0
2018-Jul-11 08:26N 34°37' E 135°08'0 0.0
2018-Jul-11 07:56N 34°37' E 135°08'0 0.0
2018-Jul-11 07:14N 34°37' E 135°08'0 0.1
2018-Jul-11 06:56N 34°37' E 135°08'0 0.0
2018-Jul-11 06:20N 34°37' E 135°08'0 0.1
2018-Jul-11 05:56N 34°37' E 135°09'0 0.0
2018-Jul-11 05:26N 34°37' E 135°09'0 0.0
2018-Jul-11 04:50N 34°37' E 135°09'0 0.0
2018-Jul-11 04:26N 34°37' E 135°09'0 0.0
2018-Jul-11 03:44N 34°37' E 135°09'0 0.1
2018-Jul-11 03:26N 34°37' E 135°09'0 0.1
2018-Jul-11 02:56N 34°37' E 135°09'0 0.0
2018-Jul-11 02:26N 34°37' E 135°09'0 0.0
2018-Jul-11 01:50N 34°37' E 135°09'0 0.0
2018-Jul-11 01:26N 34°37' E 135°09'0 0.0
2018-Jul-11 00:56N 34°37' E 135°09'0 0.1
2018-Jul-11 00:26N 34°37' E 135°09'0 0.0
2018-Jul-10 23:56N 34°37' E 135°09'0 0.0
2018-Jul-10 23:26N 34°37' E 135°09'0 0.0
2018-Jul-10 22:56N 34°37' E 135°09'0 0.0
2018-Jul-10 22:26N 34°37' E 135°09'0 0.1
2018-Jul-10 21:56N 34°37' E 135°08'0 0.0
2018-Jul-10 21:26N 34°37' E 135°08'0 0.0
2018-Jul-10 20:56N 34°37' E 135°08'0 0.0
2018-Jul-10 20:26N 34°37' E 135°08'0 0.1
2018-Jul-10 19:56N 34°37' E 135°09'0 0.0
2018-Jul-10 19:26N 34°37' E 135°09'0 0.0
2018-Jul-10 18:50N 34°37' E 135°09'0 0.0
2018-Jul-10 18:26N 34°37' E 135°09'0 0.0
2018-Jul-10 17:56N 34°37' E 135°09'0 0.0
2018-Jul-10 17:26N 34°37' E 135°09'0 0.1
2018-Jul-10 16:50N 34°37' E 135°09'0 0.0
2018-Jul-10 16:26N 34°37' E 135°09'0 0.1
2018-Jul-10 15:56N 34°37' E 135°09'0 0.1
2018-Jul-10 15:26N 34°37' E 135°09'0 0.1
2018-Jul-10 14:56N 34°37' E 135°09'0 0.0
2018-Jul-10 14:29N 34°37' E 135°09'0 0.1
2018-Jul-10 13:59N 34°37' E 135°09'0 0.1
2018-Jul-10 13:26N 34°37' E 135°09'0 0.2
2018-Jul-10 12:59N 34°37' E 135°09'0 0.0
2018-Jul-10 12:26N 34°37' E 135°09'0 0.1
2018-Jul-10 11:56N 34°37' E 135°09'0 0.0
2018-Jul-10 11:26N 34°37' E 135°09'0 0.1
2018-Jul-10 10:56N 34°37' E 135°09'1 2.7
2018-Jul-10 10:31N 34°37' E 135°10'713.1
2018-Jul-10 10:00N 34°35' E 135°18'612.6
2018-Jul-10 09:30N 34°33' E 135°25'1 1.0
2018-Jul-10 08:55N 34°33' E 135°26'0 0.0
2018-Jul-10 08:28N 34°33' E 135°26'0 0.0
2018-Jul-10 07:55N 34°33' E 135°26'0 0.0
2018-Jul-10 07:16N 34°33' E 135°26'0 0.0
2018-Jul-10 06:58N 34°33' E 135°26'0 0.0
2018-Jul-10 06:28N 34°33' E 135°26'1 2.0
2018-Jul-10 06:00N 34°33' E 135°25'612.3
2018-Jul-10 05:30N 34°32' E 135°17'713.7
2018-Jul-10 05:00N 34°27' E 135°11'713.6
2018-Jul-10 04:30N 34°23' E 135°05'713.7
2018-Jul-10 04:01N 34°18' E 134°60'611.2
2018-Jul-10 03:30N 34°13' E 135°03'613.0
2018-Jul-10 03:00N 34°07' E 135°07'0 0.6
2018-Jul-10 02:15N 34°07' E 135°08'0 0.0
2018-Jul-10 01:54N 34°07' E 135°08'0 0.0
2018-Jul-10 01:09N 34°07' E 135°08'0 0.0
2018-Jul-10 00:57N 34°07' E 135°08'0 0.0
2018-Jul-10 00:21N 34°07' E 135°08'0 0.0
2018-Jul-10 00:00N 34°07' E 135°08'1 0.8
2018-Jul-09 23:16N 34°07' E 135°07'0 0.2
2018-Jul-09 22:58N 34°08' E 135°07'0 0.1
2018-Jul-09 22:28N 34°08' E 135°07'0 0.0
2018-Jul-09 21:58N 34°08' E 135°07'0 0.0
2018-Jul-09 21:28N 34°08' E 135°07'0 0.0
2018-Jul-09 20:58N 34°08' E 135°07'0 0.0
2018-Jul-09 20:28N 34°08' E 135°07'0 0.0
2018-Jul-09 19:58N 34°08' E 135°07'0 0.0
2018-Jul-09 19:28N 34°08' E 135°07'0 0.0
2018-Jul-09 18:58N 34°08' E 135°07'0 0.0
2018-Jul-09 18:16N 34°08' E 135°07'0 0.6
2018-Jul-09 18:01N 34°08' E 135°07'5 9.0
2018-Jul-09 17:30N 34°05' E 135°03'612.8
2018-Jul-09 17:00N 33°58' E 135°02'713.0
2018-Jul-09 16:30N 33°52' E 135°01'212 6.5
2018-Jul-08 07:47N 34°48' E 139°08'413.5
2018-Jul-08 07:29N 34°51' E 139°11'713.2
2018-Jul-08 06:55N 34°57' E 139°17'512.5
2018-Jul-08 06:31N 34°59' E 139°23'612.2
2018-Jul-08 05:59N 35°02' E 139°30'612.3
2018-Jul-08 05:31N 35°05' E 139°36'713.0
2018-Jul-08 05:00N 35°08' E 139°43'612.7
2018-Jul-08 04:30N 35°14' E 139°46'612.2
2018-Jul-08 04:01N 35°19' E 139°43'611.9
2018-Jul-08 03:31N 35°24' E 139°40'0 0.5
2018-Jul-08 02:59N 35°24' E 139°40'0 0.0
2018-Jul-08 02:29N 35°24' E 139°40'0 0.0
2018-Jul-08 01:59N 35°24' E 139°40'0 0.0
2018-Jul-08 01:29N 35°24' E 139°40'0 0.0
2018-Jul-08 00:59N 35°24' E 139°40'0 0.0
2018-Jul-08 00:29N 35°24' E 139°40'0 0.0
2018-Jul-07 23:59N 35°24' E 139°40'0 0.0
2018-Jul-07 23:29N 35°24' E 139°40'0 0.9
2018-Jul-07 23:00N 35°24' E 139°40'3 6.7
2018-Jul-07 22:30N 35°23' E 139°43'1 1.5
2018-Jul-07 22:00N 35°22' E 139°44'0 0.0
2018-Jul-07 21:30N 35°22' E 139°44'0 0.1
2018-Jul-07 21:00N 35°22' E 139°44'0 0.0
2018-Jul-07 20:30N 35°22' E 139°44'0 0.1
2018-Jul-07 20:00N 35°22' E 139°44'0 0.0
2018-Jul-07 19:30N 35°22' E 139°44'0 0.0
2018-Jul-07 19:00N 35°22' E 139°44'0 0.0
2018-Jul-07 18:30N 35°22' E 139°44'0 0.0
2018-Jul-07 18:00N 35°22' E 139°44'0 0.0
2018-Jul-07 17:30N 35°22' E 139°44'4 8.3
2018-Jul-07 17:00N 35°18' E 139°45'611.5
2018-Jul-07 16:30N 35°13' E 139°47'713.3
2018-Jul-07 16:00N 35°06' E 139°45'713.5
2018-Jul-07 15:30N 34°59' E 139°43'510.3
2018-Jul-07 15:00N 34°54' E 139°45'  

Dump ship's entire track history